sensor_id;sensor_type;location;lat;lon;timestamp;temperature;humidity
336;DHT22;156;48.738;9.228;2022-07-29T00:00:58;19.50;99.90
336;DHT22;156;48.738;9.228;2022-07-29T00:03:25;19.60;99.90
336;DHT22;156;48.738;9.228;2022-07-29T00:05:55;19.60;99.90
336;DHT22;156;48.738;9.228;2022-07-29T00:11:36;19.70;99.90
336;DHT22;156;48.738;9.228;2022-07-29T00:14:27;19.70;99.90
336;DHT22;156;48.738;9.228;2022-07-29T00:16:55;19.70;99.90
336;DHT22;156;48.738;9.228;2022-07-29T00:22:08;19.70;99.90
336;DHT22;156;48.738;9.228;2022-07-29T00:24:38;19.60;99.90
336;DHT22;156;48.738;9.228;2022-07-29T00:30:06;19.50;99.90
336;DHT22;156;48.738;9.228;2022-07-29T00:32:34;19.40;99.90
336;DHT22;156;48.738;9.228;2022-07-29T00:35:04;19.20;99.90
336;DHT22;156;48.738;9.228;2022-07-29T00:37:48;19.20;99.90
336;DHT22;156;48.738;9.228;2022-07-29T00:40:16;19.10;99.90
336;DHT22;156;48.738;9.228;2022-07-29T00:42:44;19.10;99.90
336;DHT22;156;48.738;9.228;2022-07-29T00:45:13;19.10;99.90
336;DHT22;156;48.738;9.228;2022-07-29T00:47:41;19.10;99.90
336;DHT22;156;48.738;9.228;2022-07-29T00:50:10;19.00;99.90
336;DHT22;156;48.738;9.228;2022-07-29T00:52:39;19.00;99.90
336;DHT22;156;48.738;9.228;2022-07-29T00:55:09;19.00;99.90
336;DHT22;156;48.738;9.228;2022-07-29T00:57:36;19.00;99.90
336;DHT22;156;48.738;9.228;2022-07-29T01:00:05;19.00;99.90
336;DHT22;156;48.738;9.228;2022-07-29T01:02:35;19.00;99.90
336;DHT22;156;48.738;9.228;2022-07-29T01:05:02;18.90;99.90
336;DHT22;156;48.738;9.228;2022-07-29T01:07:31;18.90;99.90
336;DHT22;156;48.738;9.228;2022-07-29T01:09:59;18.90;99.90
336;DHT22;156;48.738;9.228;2022-07-29T01:12:29;18.90;99.90
336;DHT22;156;48.738;9.228;2022-07-29T01:14:58;18.90;99.90
336;DHT22;156;48.738;9.228;2022-07-29T01:17:28;18.90;99.90
336;DHT22;156;48.738;9.228;2022-07-29T01:20:05;18.90;99.90
336;DHT22;156;48.738;9.228;2022-07-29T01:25:34;18.80;99.90
336;DHT22;156;48.738;9.228;2022-07-29T01:30:51;18.80;99.90
336;DHT22;156;48.738;9.228;2022-07-29T01:33:20;18.70;99.90
336;DHT22;156;48.738;9.228;2022-07-29T01:36:10;18.70;99.90
336;DHT22;156;48.738;9.228;2022-07-29T01:38:40;18.70;99.90
336;DHT22;156;48.738;9.228;2022-07-29T01:41:11;18.70;99.90
336;DHT22;156;48.738;9.228;2022-07-29T01:43:48;18.70;99.90
336;DHT22;156;48.738;9.228;2022-07-29T01:46:21;18.60;99.90
336;DHT22;156;48.738;9.228;2022-07-29T01:48:55;18.50;99.90
336;DHT22;156;48.738;9.228;2022-07-29T01:51:27;18.50;99.90
336;DHT22;156;48.738;9.228;2022-07-29T01:54:13;18.40;99.90
336;DHT22;156;48.738;9.228;2022-07-29T01:56:42;18.40;99.90
336;DHT22;156;48.738;9.228;2022-07-29T01:59:11;18.40;99.90
336;DHT22;156;48.738;9.228;2022-07-29T02:01:41;18.40;99.90
336;DHT22;156;48.738;9.228;2022-07-29T02:04:11;18.40;99.90
336;DHT22;156;48.738;9.228;2022-07-29T02:06:40;18.40;99.90
336;DHT22;156;48.738;9.228;2022-07-29T02:09:10;18.40;99.90
336;DHT22;156;48.738;9.228;2022-07-29T02:11:40;18.40;99.90
336;DHT22;156;48.738;9.228;2022-07-29T02:14:10;18.30;99.90
336;DHT22;156;48.738;9.228;2022-07-29T02:16:41;18.30;99.90
336;DHT22;156;48.738;9.228;2022-07-29T02:19:09;18.30;99.90
336;DHT22;156;48.738;9.228;2022-07-29T02:21:38;18.30;99.90
336;DHT22;156;48.738;9.228;2022-07-29T02:24:06;18.30;99.90
336;DHT22;156;48.738;9.228;2022-07-29T02:26:35;18.30;99.90
336;DHT22;156;48.738;9.228;2022-07-29T02:29:02;18.40;99.90
336;DHT22;156;48.738;9.228;2022-07-29T02:31:33;18.40;99.90
336;DHT22;156;48.738;9.228;2022-07-29T02:34:05;18.40;99.90
336;DHT22;156;48.738;9.228;2022-07-29T02:36:33;18.40;99.90
336;DHT22;156;48.738;9.228;2022-07-29T02:39:01;18.40;99.90
336;DHT22;156;48.738;9.228;2022-07-29T02:41:35;18.50;99.90
336;DHT22;156;48.738;9.228;2022-07-29T02:44:08;18.50;99.90
336;DHT22;156;48.738;9.228;2022-07-29T02:46:37;18.50;99.90
336;DHT22;156;48.738;9.228;2022-07-29T02:49:09;18.50;99.90
336;DHT22;156;48.738;9.228;2022-07-29T02:51:43;18.40;99.90
336;DHT22;156;48.738;9.228;2022-07-29T02:54:17;18.40;99.90
336;DHT22;156;48.738;9.228;2022-07-29T02:56:46;18.40;99.90
336;DHT22;156;48.738;9.228;2022-07-29T02:59:18;18.30;99.90
336;DHT22;156;48.738;9.228;2022-07-29T03:01:49;18.40;99.90
336;DHT22;156;48.738;9.228;2022-07-29T03:04:19;18.40;99.90
336;DHT22;156;48.738;9.228;2022-07-29T03:06:47;18.40;99.90
336;DHT22;156;48.738;9.228;2022-07-29T03:09:15;18.30;99.90
336;DHT22;156;48.738;9.228;2022-07-29T03:11:43;18.20;99.90
336;DHT22;156;48.738;9.228;2022-07-29T03:14:10;18.20;99.90
336;DHT22;156;48.738;9.228;2022-07-29T03:16:38;18.10;99.90
336;DHT22;156;48.738;9.228;2022-07-29T03:19:06;18.10;99.90
336;DHT22;156;48.738;9.228;2022-07-29T03:21:34;18.10;99.90
336;DHT22;156;48.738;9.228;2022-07-29T03:24:01;18.20;99.90
336;DHT22;156;48.738;9.228;2022-07-29T03:26:28;18.20;99.90
336;DHT22;156;48.738;9.228;2022-07-29T03:28:55;18.20;99.90
336;DHT22;156;48.738;9.228;2022-07-29T03:31:22;18.30;99.90
336;DHT22;156;48.738;9.228;2022-07-29T03:33:49;18.40;99.90
336;DHT22;156;48.738;9.228;2022-07-29T03:36:16;18.40;99.90
336;DHT22;156;48.738;9.228;2022-07-29T03:38:45;18.50;99.90
336;DHT22;156;48.738;9.228;2022-07-29T03:41:13;18.40;99.90
336;DHT22;156;48.738;9.228;2022-07-29T03:43:41;18.30;99.90
336;DHT22;156;48.738;9.228;2022-07-29T03:46:10;18.10;99.90
336;DHT22;156;48.738;9.228;2022-07-29T03:48:42;18.00;99.90
336;DHT22;156;48.738;9.228;2022-07-29T03:51:13;17.90;99.90
336;DHT22;156;48.738;9.228;2022-07-29T03:53:40;17.90;99.90
336;DHT22;156;48.738;9.228;2022-07-29T03:56:10;17.90;99.90
336;DHT22;156;48.738;9.228;2022-07-29T03:58:38;17.80;99.90
336;DHT22;156;48.738;9.228;2022-07-29T04:01:05;17.70;99.90
336;DHT22;156;48.738;9.228;2022-07-29T04:03:33;17.70;99.90
336;DHT22;156;48.738;9.228;2022-07-29T04:06:02;17.70;99.90
336;DHT22;156;48.738;9.228;2022-07-29T04:08:31;17.80;99.90
336;DHT22;156;48.738;9.228;2022-07-29T04:10:58;17.70;99.90
336;DHT22;156;48.738;9.228;2022-07-29T04:13:26;17.60;99.90
336;DHT22;156;48.738;9.228;2022-07-29T04:15:53;17.70;99.90
336;DHT22;156;48.738;9.228;2022-07-29T04:18:20;17.80;99.90
336;DHT22;156;48.738;9.228;2022-07-29T04:20:47;17.80;99.90
336;DHT22;156;48.738;9.228;2022-07-29T04:23:14;17.80;99.90
336;DHT22;156;48.738;9.228;2022-07-29T04:25:42;17.80;99.90
336;DHT22;156;48.738;9.228;2022-07-29T04:28:09;17.80;99.90
336;DHT22;156;48.738;9.228;2022-07-29T04:30:38;17.80;99.90
336;DHT22;156;48.738;9.228;2022-07-29T04:33:06;17.70;99.90
336;DHT22;156;48.738;9.228;2022-07-29T04:35:35;17.70;99.90
336;DHT22;156;48.738;9.228;2022-07-29T04:38:04;17.70;99.90
336;DHT22;156;48.738;9.228;2022-07-29T04:40:31;17.70;99.90
336;DHT22;156;48.738;9.228;2022-07-29T04:42:59;17.70;99.90
336;DHT22;156;48.738;9.228;2022-07-29T04:45:26;17.80;99.90
336;DHT22;156;48.738;9.228;2022-07-29T04:47:55;17.80;99.90
336;DHT22;156;48.738;9.228;2022-07-29T04:50:22;18.00;99.90
336;DHT22;156;48.738;9.228;2022-07-29T04:52:49;18.00;99.90
336;DHT22;156;48.738;9.228;2022-07-29T04:55:16;18.10;99.90
336;DHT22;156;48.738;9.228;2022-07-29T04:57:43;18.10;99.90
336;DHT22;156;48.738;9.228;2022-07-29T05:00:10;18.10;99.90
336;DHT22;156;48.738;9.228;2022-07-29T05:02:37;18.10;99.90
336;DHT22;156;48.738;9.228;2022-07-29T05:05:07;18.10;99.90
336;DHT22;156;48.738;9.228;2022-07-29T05:07:34;18.20;99.90
336;DHT22;156;48.738;9.228;2022-07-29T05:10:01;18.30;99.90
336;DHT22;156;48.738;9.228;2022-07-29T05:12:28;18.40;99.90
336;DHT22;156;48.738;9.228;2022-07-29T05:14:55;18.50;99.90
336;DHT22;156;48.738;9.228;2022-07-29T05:17:22;18.50;99.90
336;DHT22;156;48.738;9.228;2022-07-29T05:19:49;18.40;99.90
336;DHT22;156;48.738;9.228;2022-07-29T05:22:18;18.40;99.90
336;DHT22;156;48.738;9.228;2022-07-29T05:24:45;18.40;99.90
336;DHT22;156;48.738;9.228;2022-07-29T05:27:13;18.50;99.90
336;DHT22;156;48.738;9.228;2022-07-29T05:29:40;18.50;99.90
336;DHT22;156;48.738;9.228;2022-07-29T05:32:07;18.60;99.90
336;DHT22;156;48.738;9.228;2022-07-29T05:34:34;18.70;99.90
336;DHT22;156;48.738;9.228;2022-07-29T05:37:01;18.80;99.90
336;DHT22;156;48.738;9.228;2022-07-29T05:39:29;18.90;99.90
336;DHT22;156;48.738;9.228;2022-07-29T05:41:56;19.10;99.90
336;DHT22;156;48.738;9.228;2022-07-29T05:44:23;19.20;99.90
336;DHT22;156;48.738;9.228;2022-07-29T05:46:50;19.30;99.90
336;DHT22;156;48.738;9.228;2022-07-29T05:49:17;19.30;99.90
336;DHT22;156;48.738;9.228;2022-07-29T05:51:44;19.30;99.90
336;DHT22;156;48.738;9.228;2022-07-29T05:54:11;19.30;99.90
336;DHT22;156;48.738;9.228;2022-07-29T05:56:39;19.40;99.90
336;DHT22;156;48.738;9.228;2022-07-29T05:59:06;19.50;99.90
336;DHT22;156;48.738;9.228;2022-07-29T06:01:33;19.50;99.90
336;DHT22;156;48.738;9.228;2022-07-29T06:04:04;19.50;99.90
336;DHT22;156;48.738;9.228;2022-07-29T06:06:32;19.50;99.90
336;DHT22;156;48.738;9.228;2022-07-29T06:08:59;19.50;99.90
336;DHT22;156;48.738;9.228;2022-07-29T06:11:26;19.60;99.90
336;DHT22;156;48.738;9.228;2022-07-29T06:13:54;19.60;99.90
336;DHT22;156;48.738;9.228;2022-07-29T06:16:21;19.60;99.90
336;DHT22;156;48.738;9.228;2022-07-29T06:18:48;19.70;99.90
336;DHT22;156;48.738;9.228;2022-07-29T06:21:15;19.70;99.90
336;DHT22;156;48.738;9.228;2022-07-29T06:23:42;19.80;99.90
336;DHT22;156;48.738;9.228;2022-07-29T06:26:09;19.90;99.90
336;DHT22;156;48.738;9.228;2022-07-29T06:28:36;20.00;99.90
336;DHT22;156;48.738;9.228;2022-07-29T06:31:05;20.10;99.90
336;DHT22;156;48.738;9.228;2022-07-29T06:33:32;20.30;99.90
336;DHT22;156;48.738;9.228;2022-07-29T06:35:59;20.20;98.10
336;DHT22;156;48.738;9.228;2022-07-29T06:38:26;20.30;96.90
336;DHT22;156;48.738;9.228;2022-07-29T06:40:53;20.30;91.70
336;DHT22;156;48.738;9.228;2022-07-29T06:43:31;20.40;92.70
336;DHT22;156;48.738;9.228;2022-07-29T06:46:04;20.40;89.90
336;DHT22;156;48.738;9.228;2022-07-29T06:48:32;20.40;93.60
336;DHT22;156;48.738;9.228;2022-07-29T06:50:59;20.50;87.10
336;DHT22;156;48.738;9.228;2022-07-29T06:53:27;20.60;83.10
336;DHT22;156;48.738;9.228;2022-07-29T06:55:54;20.60;76.80
336;DHT22;156;48.738;9.228;2022-07-29T06:58:21;20.70;77.70
336;DHT22;156;48.738;9.228;2022-07-29T07:00:48;20.80;86.50
336;DHT22;156;48.738;9.228;2022-07-29T07:03:17;20.80;79.60
336;DHT22;156;48.738;9.228;2022-07-29T07:05:45;20.80;77.10
336;DHT22;156;48.738;9.228;2022-07-29T07:08:12;20.90;79.70
336;DHT22;156;48.738;9.228;2022-07-29T07:10:44;21.10;78.40
336;DHT22;156;48.738;9.228;2022-07-29T07:13:11;21.20;71.80
336;DHT22;156;48.738;9.228;2022-07-29T07:15:38;21.40;72.50
336;DHT22;156;48.738;9.228;2022-07-29T07:18:05;21.50;58.80
336;DHT22;156;48.738;9.228;2022-07-29T07:20:35;21.60;55.00
336;DHT22;156;48.738;9.228;2022-07-29T07:23:02;21.70;54.30
336;DHT22;156;48.738;9.228;2022-07-29T07:25:30;21.70;53.50
336;DHT22;156;48.738;9.228;2022-07-29T07:27:57;21.60;53.40
336;DHT22;156;48.738;9.228;2022-07-29T07:30:24;21.70;54.10
336;DHT22;156;48.738;9.228;2022-07-29T07:32:52;21.90;52.70
336;DHT22;156;48.738;9.228;2022-07-29T07:35:19;21.90;48.60
336;DHT22;156;48.738;9.228;2022-07-29T07:37:48;22.00;47.70
336;DHT22;156;48.738;9.228;2022-07-29T07:40:15;21.80;51.40
336;DHT22;156;48.738;9.228;2022-07-29T07:42:41;21.70;50.70
336;DHT22;156;48.738;9.228;2022-07-29T07:45:09;21.80;53.40
336;DHT22;156;48.738;9.228;2022-07-29T07:47:37;21.80;53.80
336;DHT22;156;48.738;9.228;2022-07-29T07:50:05;22.10;56.70
336;DHT22;156;48.738;9.228;2022-07-29T07:52:33;22.00;56.30
336;DHT22;156;48.738;9.228;2022-07-29T07:55:01;22.20;48.30
336;DHT22;156;48.738;9.228;2022-07-29T07:57:28;22.40;45.30
336;DHT22;156;48.738;9.228;2022-07-29T07:59:55;22.50;37.50
336;DHT22;156;48.738;9.228;2022-07-29T08:02:22;22.60;33.90
336;DHT22;156;48.738;9.228;2022-07-29T08:04:49;22.60;31.00
336;DHT22;156;48.738;9.228;2022-07-29T08:07:16;22.60;31.20
336;DHT22;156;48.738;9.228;2022-07-29T08:09:43;22.70;32.00
336;DHT22;156;48.738;9.228;2022-07-29T08:12:11;22.80;32.40
336;DHT22;156;48.738;9.228;2022-07-29T08:14:38;22.90;26.50
336;DHT22;156;48.738;9.228;2022-07-29T08:17:05;23.00;27.10
336;DHT22;156;48.738;9.228;2022-07-29T08:19:32;22.90;26.40
336;DHT22;156;48.738;9.228;2022-07-29T08:21:59;23.10;26.60
336;DHT22;156;48.738;9.228;2022-07-29T08:24:26;23.20;27.20
336;DHT22;156;48.738;9.228;2022-07-29T08:27:19;23.20;26.70
336;DHT22;156;48.738;9.228;2022-07-29T08:29:47;23.40;21.00
336;DHT22;156;48.738;9.228;2022-07-29T08:32:14;23.50;25.50
336;DHT22;156;48.738;9.228;2022-07-29T08:34:40;23.50;20.10
336;DHT22;156;48.738;9.228;2022-07-29T08:37:07;23.60;20.80
336;DHT22;156;48.738;9.228;2022-07-29T08:39:34;23.70;19.80
336;DHT22;156;48.738;9.228;2022-07-29T08:42:01;23.80;17.40
336;DHT22;156;48.738;9.228;2022-07-29T08:44:31;24.00;14.70
336;DHT22;156;48.738;9.228;2022-07-29T08:46:59;24.20;11.70
336;DHT22;156;48.738;9.228;2022-07-29T08:49:26;24.20;10.70
336;DHT22;156;48.738;9.228;2022-07-29T08:51:53;24.40;6.30
336;DHT22;156;48.738;9.228;2022-07-29T08:54:23;24.20;6.20
336;DHT22;156;48.738;9.228;2022-07-29T08:56:50;23.90;6.80
336;DHT22;156;48.738;9.228;2022-07-29T08:59:19;24.00;9.30
336;DHT22;156;48.738;9.228;2022-07-29T09:01:48;24.10;5.50
336;DHT22;156;48.738;9.228;2022-07-29T09:04:19;24.30;1.80
336;DHT22;156;48.738;9.228;2022-07-29T09:06:47;24.40;1.20
336;DHT22;156;48.738;9.228;2022-07-29T09:09:16;24.40;4.00
336;DHT22;156;48.738;9.228;2022-07-29T09:11:43;24.50;2.70
336;DHT22;156;48.738;9.228;2022-07-29T09:14:12;24.70;5.90
336;DHT22;156;48.738;9.228;2022-07-29T09:16:49;24.80;1.00
336;DHT22;156;48.738;9.228;2022-07-29T09:19:27;24.90;1.00
336;DHT22;156;48.738;9.228;2022-07-29T09:21:55;25.00;1.00
336;DHT22;156;48.738;9.228;2022-07-29T09:24:28;25.00;1.00
336;DHT22;156;48.738;9.228;2022-07-29T09:27:03;25.00;1.00
336;DHT22;156;48.738;9.228;2022-07-29T09:29:34;24.90;1.00
336;DHT22;156;48.738;9.228;2022-07-29T09:32:06;25.10;1.00
336;DHT22;156;48.738;9.228;2022-07-29T09:34:34;25.20;1.00
336;DHT22;156;48.738;9.228;2022-07-29T09:37:01;25.30;1.00
336;DHT22;156;48.738;9.228;2022-07-29T09:39:30;25.40;1.00
336;DHT22;156;48.738;9.228;2022-07-29T09:42:00;25.50;1.00
336;DHT22;156;48.738;9.228;2022-07-29T09:44:40;25.70;1.00
336;DHT22;156;48.738;9.228;2022-07-29T09:47:09;25.80;1.00
336;DHT22;156;48.738;9.228;2022-07-29T09:49:51;26.00;1.00
336;DHT22;156;48.738;9.228;2022-07-29T09:52:18;26.30;1.00
336;DHT22;156;48.738;9.228;2022-07-29T09:54:45;26.30;1.00
336;DHT22;156;48.738;9.228;2022-07-29T09:57:24;26.50;1.00
336;DHT22;156;48.738;9.228;2022-07-29T09:59:59;26.30;1.00
336;DHT22;156;48.738;9.228;2022-07-29T10:02:32;26.40;1.00
336;DHT22;156;48.738;9.228;2022-07-29T10:04:59;26.80;1.00
336;DHT22;156;48.738;9.228;2022-07-29T10:07:26;26.70;1.00
336;DHT22;156;48.738;9.228;2022-07-29T10:09:54;26.60;1.00
336;DHT22;156;48.738;9.228;2022-07-29T10:12:22;26.80;1.00
336;DHT22;156;48.738;9.228;2022-07-29T10:14:50;26.70;1.00
336;DHT22;156;48.738;9.228;2022-07-29T10:17:17;26.80;1.00
336;DHT22;156;48.738;9.228;2022-07-29T10:19:46;26.90;1.00
336;DHT22;156;48.738;9.228;2022-07-29T10:22:14;27.10;1.00
336;DHT22;156;48.738;9.228;2022-07-29T10:24:41;27.20;1.00
336;DHT22;156;48.738;9.228;2022-07-29T10:27:08;27.00;1.00
336;DHT22;156;48.738;9.228;2022-07-29T10:29:36;27.00;1.00
336;DHT22;156;48.738;9.228;2022-07-29T10:32:20;27.00;1.00
336;DHT22;156;48.738;9.228;2022-07-29T10:35:06;26.90;1.00
336;DHT22;156;48.738;9.228;2022-07-29T10:37:52;26.20;1.00
336;DHT22;156;48.738;9.228;2022-07-29T10:40:30;26.00;1.00
336;DHT22;156;48.738;9.228;2022-07-29T10:43:22;26.10;1.00
336;DHT22;156;48.738;9.228;2022-07-29T10:45:55;26.30;1.00
336;DHT22;156;48.738;9.228;2022-07-29T10:48:23;26.30;1.00
336;DHT22;156;48.738;9.228;2022-07-29T10:50:56;26.30;1.00
336;DHT22;156;48.738;9.228;2022-07-29T10:53:24;26.30;1.00
336;DHT22;156;48.738;9.228;2022-07-29T10:56:23;26.20;1.00
336;DHT22;156;48.738;9.228;2022-07-29T10:59:24;25.80;1.00
336;DHT22;156;48.738;9.228;2022-07-29T11:01:52;25.50;1.00
336;DHT22;156;48.738;9.228;2022-07-29T11:04:58;24.70;1.00
336;DHT22;156;48.738;9.228;2022-07-29T11:07:27;24.70;1.00
336;DHT22;156;48.738;9.228;2022-07-29T11:10:19;23.80;1.00
336;DHT22;156;48.738;9.228;2022-07-29T11:12:46;22.60;1.00
336;DHT22;156;48.738;9.228;2022-07-29T11:15:14;21.50;1.00
336;DHT22;156;48.738;9.228;2022-07-29T11:18:08;20.80;17.00
336;DHT22;156;48.738;9.228;2022-07-29T11:20:37;19.50;99.90
336;DHT22;156;48.738;9.228;2022-07-29T11:23:24;18.60;99.90
336;DHT22;156;48.738;9.228;2022-07-29T11:26:14;17.10;98.80
336;DHT22;156;48.738;9.228;2022-07-29T11:28:53;15.60;99.90
336;DHT22;156;48.738;9.228;2022-07-29T11:31:36;14.90;99.90
336;DHT22;156;48.738;9.228;2022-07-29T11:34:23;15.10;99.90
336;DHT22;156;48.738;9.228;2022-07-29T11:37:16;15.80;99.90
336;DHT22;156;48.738;9.228;2022-07-29T11:39:45;15.90;99.90
336;DHT22;156;48.738;9.228;2022-07-29T11:42:46;16.10;99.90
336;DHT22;156;48.738;9.228;2022-07-29T11:45:16;16.20;99.90
336;DHT22;156;48.738;9.228;2022-07-29T11:47:49;16.20;99.90
336;DHT22;156;48.738;9.228;2022-07-29T11:50:26;16.30;99.90
336;DHT22;156;48.738;9.228;2022-07-29T11:52:54;16.40;99.90
336;DHT22;156;48.738;9.228;2022-07-29T11:55:23;16.70;99.90
336;DHT22;156;48.738;9.228;2022-07-29T11:57:52;16.70;99.90
336;DHT22;156;48.738;9.228;2022-07-29T12:00:25;16.70;99.90
336;DHT22;156;48.738;9.228;2022-07-29T12:02:52;16.90;99.90
336;DHT22;156;48.738;9.228;2022-07-29T12:05:20;17.00;99.90
336;DHT22;156;48.738;9.228;2022-07-29T12:07:48;17.20;99.90
336;DHT22;156;48.738;9.228;2022-07-29T12:10:15;17.40;99.90
336;DHT22;156;48.738;9.228;2022-07-29T12:12:51;17.60;99.90
336;DHT22;156;48.738;9.228;2022-07-29T12:15:19;17.60;99.90
336;DHT22;156;48.738;9.228;2022-07-29T12:17:47;17.70;99.90
336;DHT22;156;48.738;9.228;2022-07-29T12:20:22;17.90;99.90
336;DHT22;156;48.738;9.228;2022-07-29T12:22:50;17.90;99.90
336;DHT22;156;48.738;9.228;2022-07-29T12:25:19;18.00;99.90
336;DHT22;156;48.738;9.228;2022-07-29T12:27:57;18.10;99.90
336;DHT22;156;48.738;9.228;2022-07-29T12:30:37;18.10;99.90
336;DHT22;156;48.738;9.228;2022-07-29T12:33:17;18.20;99.90
336;DHT22;156;48.738;9.228;2022-07-29T12:35:46;18.50;99.90
336;DHT22;156;48.738;9.228;2022-07-29T12:38:14;18.50;99.90
336;DHT22;156;48.738;9.228;2022-07-29T12:40:43;18.80;99.90
336;DHT22;156;48.738;9.228;2022-07-29T12:43:13;18.80;99.90
336;DHT22;156;48.738;9.228;2022-07-29T12:45:42;18.70;99.90
336;DHT22;156;48.738;9.228;2022-07-29T12:48:10;18.70;99.90
336;DHT22;156;48.738;9.228;2022-07-29T12:50:52;18.70;99.90
336;DHT22;156;48.738;9.228;2022-07-29T12:53:20;18.70;99.90
336;DHT22;156;48.738;9.228;2022-07-29T12:55:49;18.70;99.90
336;DHT22;156;48.738;9.228;2022-07-29T12:58:29;18.70;99.90
336;DHT22;156;48.738;9.228;2022-07-29T13:01:07;18.80;99.90
336;DHT22;156;48.738;9.228;2022-07-29T13:03:45;19.00;99.90
336;DHT22;156;48.738;9.228;2022-07-29T13:06:41;19.10;99.90
336;DHT22;156;48.738;9.228;2022-07-29T13:09:10;19.30;99.90
336;DHT22;156;48.738;9.228;2022-07-29T13:11:40;19.30;99.90
336;DHT22;156;48.738;9.228;2022-07-29T13:14:11;19.40;99.90
336;DHT22;156;48.738;9.228;2022-07-29T13:17:01;19.60;99.90
336;DHT22;156;48.738;9.228;2022-07-29T13:19:36;19.70;99.90
336;DHT22;156;48.738;9.228;2022-07-29T13:22:04;19.60;99.90
336;DHT22;156;48.738;9.228;2022-07-29T13:24:31;19.50;99.90
336;DHT22;156;48.738;9.228;2022-07-29T13:26:58;19.20;99.90
336;DHT22;156;48.738;9.228;2022-07-29T13:29:26;19.20;99.90
336;DHT22;156;48.738;9.228;2022-07-29T13:31:53;19.10;99.90
336;DHT22;156;48.738;9.228;2022-07-29T13:34:20;19.00;99.90
336;DHT22;156;48.738;9.228;2022-07-29T13:36:49;18.90;99.90
336;DHT22;156;48.738;9.228;2022-07-29T13:39:16;18.80;99.90
336;DHT22;156;48.738;9.228;2022-07-29T13:41:43;18.70;99.90
336;DHT22;156;48.738;9.228;2022-07-29T13:44:10;18.80;99.90
336;DHT22;156;48.738;9.228;2022-07-29T13:46:38;19.00;99.90
336;DHT22;156;48.738;9.228;2022-07-29T13:49:05;19.10;99.90
336;DHT22;156;48.738;9.228;2022-07-29T13:51:32;19.10;99.90
336;DHT22;156;48.738;9.228;2022-07-29T13:53:59;19.30;99.90
336;DHT22;156;48.738;9.228;2022-07-29T13:56:26;19.40;99.90
336;DHT22;156;48.738;9.228;2022-07-29T13:58:54;19.60;99.90
336;DHT22;156;48.738;9.228;2022-07-29T14:01:21;19.80;99.90
336;DHT22;156;48.738;9.228;2022-07-29T14:03:49;20.00;99.90
336;DHT22;156;48.738;9.228;2022-07-29T14:06:16;20.40;99.90
336;DHT22;156;48.738;9.228;2022-07-29T14:08:43;20.60;99.90
336;DHT22;156;48.738;9.228;2022-07-29T14:11:10;20.80;99.90
336;DHT22;156;48.738;9.228;2022-07-29T14:13:37;21.00;99.90
336;DHT22;156;48.738;9.228;2022-07-29T14:16:04;21.10;99.90
336;DHT22;156;48.738;9.228;2022-07-29T14:18:32;21.10;99.90
336;DHT22;156;48.738;9.228;2022-07-29T14:21:00;21.20;99.90
336;DHT22;156;48.738;9.228;2022-07-29T14:23:27;21.40;99.90
336;DHT22;156;48.738;9.228;2022-07-29T14:25:54;21.40;99.90
336;DHT22;156;48.738;9.228;2022-07-29T14:28:21;21.50;99.90
336;DHT22;156;48.738;9.228;2022-07-29T14:30:48;21.60;99.90
336;DHT22;156;48.738;9.228;2022-07-29T14:33:15;21.60;99.90
336;DHT22;156;48.738;9.228;2022-07-29T14:35:42;21.60;99.90
336;DHT22;156;48.738;9.228;2022-07-29T14:38:11;21.40;99.90
336;DHT22;156;48.738;9.228;2022-07-29T14:40:38;21.40;99.90
336;DHT22;156;48.738;9.228;2022-07-29T14:43:05;21.50;99.90
336;DHT22;156;48.738;9.228;2022-07-29T14:45:32;21.70;99.90
336;DHT22;156;48.738;9.228;2022-07-29T14:47:59;21.60;99.90
336;DHT22;156;48.738;9.228;2022-07-29T14:50:26;21.70;99.90
336;DHT22;156;48.738;9.228;2022-07-29T14:52:53;21.80;99.90
336;DHT22;156;48.738;9.228;2022-07-29T14:55:22;21.90;99.90
336;DHT22;156;48.738;9.228;2022-07-29T14:57:49;21.90;99.90
336;DHT22;156;48.738;9.228;2022-07-29T15:00:17;22.00;99.90
336;DHT22;156;48.738;9.228;2022-07-29T15:02:44;22.00;99.90
336;DHT22;156;48.738;9.228;2022-07-29T15:05:11;22.00;99.90
336;DHT22;156;48.738;9.228;2022-07-29T15:07:38;22.10;99.90
336;DHT22;156;48.738;9.228;2022-07-29T15:10:05;21.90;99.90
336;DHT22;156;48.738;9.228;2022-07-29T15:12:33;21.80;99.90
336;DHT22;156;48.738;9.228;2022-07-29T15:15:00;21.70;99.90
336;DHT22;156;48.738;9.228;2022-07-29T15:17:27;21.70;99.90
336;DHT22;156;48.738;9.228;2022-07-29T15:19:54;21.80;99.90
336;DHT22;156;48.738;9.228;2022-07-29T15:22:21;21.80;99.90
336;DHT22;156;48.738;9.228;2022-07-29T15:24:48;21.90;99.90
336;DHT22;156;48.738;9.228;2022-07-29T15:27:15;22.00;99.90
336;DHT22;156;48.738;9.228;2022-07-29T15:29:44;21.90;99.90
336;DHT22;156;48.738;9.228;2022-07-29T15:32:11;21.80;99.90
336;DHT22;156;48.738;9.228;2022-07-29T15:34:40;21.90;99.90
336;DHT22;156;48.738;9.228;2022-07-29T15:37:07;21.90;99.90
336;DHT22;156;48.738;9.228;2022-07-29T15:39:36;21.90;99.90
336;DHT22;156;48.738;9.228;2022-07-29T15:42:03;22.00;99.90
336;DHT22;156;48.738;9.228;2022-07-29T15:44:30;21.90;99.90
336;DHT22;156;48.738;9.228;2022-07-29T15:46:59;21.90;99.90
336;DHT22;156;48.738;9.228;2022-07-29T15:49:29;21.90;99.90
336;DHT22;156;48.738;9.228;2022-07-29T15:51:58;21.90;99.90
336;DHT22;156;48.738;9.228;2022-07-29T15:54:25;21.90;99.90
336;DHT22;156;48.738;9.228;2022-07-29T15:56:52;21.90;99.90
336;DHT22;156;48.738;9.228;2022-07-29T15:59:19;21.90;99.90
336;DHT22;156;48.738;9.228;2022-07-29T16:01:46;21.90;99.90
336;DHT22;156;48.738;9.228;2022-07-29T16:04:15;21.90;99.90
336;DHT22;156;48.738;9.228;2022-07-29T16:06:42;22.00;99.90
336;DHT22;156;48.738;9.228;2022-07-29T16:09:09;21.90;99.90
336;DHT22;156;48.738;9.228;2022-07-29T16:11:37;21.90;99.90
336;DHT22;156;48.738;9.228;2022-07-29T16:14:04;21.90;99.90
336;DHT22;156;48.738;9.228;2022-07-29T16:16:31;22.00;99.90
336;DHT22;156;48.738;9.228;2022-07-29T16:18:58;22.00;99.90
336;DHT22;156;48.738;9.228;2022-07-29T16:21:26;22.00;99.90
336;DHT22;156;48.738;9.228;2022-07-29T16:23:53;21.90;99.90
336;DHT22;156;48.738;9.228;2022-07-29T16:26:20;21.90;99.90
336;DHT22;156;48.738;9.228;2022-07-29T16:28:47;21.90;99.90
336;DHT22;156;48.738;9.228;2022-07-29T16:31:14;21.90;99.90
336;DHT22;156;48.738;9.228;2022-07-29T16:33:41;21.80;99.90
336;DHT22;156;48.738;9.228;2022-07-29T16:36:07;21.80;99.90
336;DHT22;156;48.738;9.228;2022-07-29T16:38:36;21.70;99.90
336;DHT22;156;48.738;9.228;2022-07-29T16:41:03;21.60;99.90
336;DHT22;156;48.738;9.228;2022-07-29T16:43:30;21.50;99.90
336;DHT22;156;48.738;9.228;2022-07-29T16:45:57;21.50;99.90
336;DHT22;156;48.738;9.228;2022-07-29T16:48:24;21.60;99.90
336;DHT22;156;48.738;9.228;2022-07-29T16:50:51;21.60;99.90
336;DHT22;156;48.738;9.228;2022-07-29T16:53:17;21.60;99.90
336;DHT22;156;48.738;9.228;2022-07-29T16:55:46;21.50;99.90
336;DHT22;156;48.738;9.228;2022-07-29T16:58:13;21.50;99.90
336;DHT22;156;48.738;9.228;2022-07-29T17:00:40;21.60;99.90
336;DHT22;156;48.738;9.228;2022-07-29T17:03:07;21.60;99.90
336;DHT22;156;48.738;9.228;2022-07-29T17:05:34;21.70;99.90
336;DHT22;156;48.738;9.228;2022-07-29T17:08:01;21.70;99.90